sensor_id;sensor_type;location;lat;lon;timestamp;temperature;humidity
24730;DHT22;12832;52.392;13.066;2023-08-17T00:01:27;28.60;56.80
24730;DHT22;12832;52.392;13.066;2023-08-17T00:03:53;28.60;56.80
24730;DHT22;12832;52.392;13.066;2023-08-17T00:06:20;28.60;56.80
24730;DHT22;12832;52.392;13.066;2023-08-17T00:08:46;28.60;56.80
24730;DHT22;12832;52.392;13.066;2023-08-17T00:11:12;28.60;56.70
24730;DHT22;12832;52.392;13.066;2023-08-17T00:13:39;28.60;56.80
24730;DHT22;12832;52.392;13.066;2023-08-17T00:16:05;28.60;56.70
24730;DHT22;12832;52.392;13.066;2023-08-17T00:18:31;28.60;56.70
24730;DHT22;12832;52.392;13.066;2023-08-17T00:20:57;28.60;56.70
24730;DHT22;12832;52.392;13.066;2023-08-17T00:23:24;28.60;56.70
24730;DHT22;12832;52.392;13.066;2023-08-17T00:25:50;28.60;56.70
24730;DHT22;12832;52.392;13.066;2023-08-17T00:28:16;28.60;56.70
24730;DHT22;12832;52.392;13.066;2023-08-17T00:30:43;28.60;56.70
24730;DHT22;12832;52.392;13.066;2023-08-17T00:33:09;28.60;56.70
24730;DHT22;12832;52.392;13.066;2023-08-17T00:35:36;28.60;56.70
24730;DHT22;12832;52.392;13.066;2023-08-17T00:38:02;28.60;56.70
24730;DHT22;12832;52.392;13.066;2023-08-17T00:40:28;28.60;56.70
24730;DHT22;12832;52.392;13.066;2023-08-17T00:42:55;28.60;56.70
24730;DHT22;12832;52.392;13.066;2023-08-17T00:45:22;28.60;56.70
24730;DHT22;12832;52.392;13.066;2023-08-17T00:47:49;28.60;56.60
24730;DHT22;12832;52.392;13.066;2023-08-17T00:50:16;28.60;56.70
24730;DHT22;12832;52.392;13.066;2023-08-17T00:52:42;28.60;56.70
24730;DHT22;12832;52.392;13.066;2023-08-17T00:55:09;28.60;56.60
24730;DHT22;12832;52.392;13.066;2023-08-17T00:57:37;28.60;56.60
24730;DHT22;12832;52.392;13.066;2023-08-17T01:00:04;28.60;56.70
24730;DHT22;12832;52.392;13.066;2023-08-17T01:02:32;28.60;56.70
24730;DHT22;12832;52.392;13.066;2023-08-17T01:04:59;28.60;56.60
24730;DHT22;12832;52.392;13.066;2023-08-17T01:07:26;28.60;56.60
24730;DHT22;12832;52.392;13.066;2023-08-17T01:09:53;28.60;56.60
24730;DHT22;12832;52.392;13.066;2023-08-17T01:15:35;28.60;56.60
24730;DHT22;12832;52.392;13.066;2023-08-17T01:18:26;28.60;56.70
24730;DHT22;12832;52.392;13.066;2023-08-17T01:20:54;28.60;56.70
24730;DHT22;12832;52.392;13.066;2023-08-17T01:23:21;28.60;56.60
24730;DHT22;12832;52.392;13.066;2023-08-17T01:25:48;28.60;56.60
24730;DHT22;12832;52.392;13.066;2023-08-17T01:28:15;28.70;56.70
24730;DHT22;12832;52.392;13.066;2023-08-17T01:31:08;28.60;56.60
24730;DHT22;12832;52.392;13.066;2023-08-17T01:33:44;28.60;56.60
24730;DHT22;12832;52.392;13.066;2023-08-17T01:36:42;28.60;56.60
24730;DHT22;12832;52.392;13.066;2023-08-17T01:39:10;28.60;56.60
24730;DHT22;12832;52.392;13.066;2023-08-17T01:41:38;28.60;56.60
24730;DHT22;12832;52.392;13.066;2023-08-17T01:44:05;28.60;56.60
24730;DHT22;12832;52.392;13.066;2023-08-17T01:46:32;28.60;56.60
24730;DHT22;12832;52.392;13.066;2023-08-17T01:48:59;28.60;56.60
24730;DHT22;12832;52.392;13.066;2023-08-17T01:51:26;28.60;56.60
24730;DHT22;12832;52.392;13.066;2023-08-17T01:53:52;28.60;56.60
24730;DHT22;12832;52.392;13.066;2023-08-17T01:56:18;28.60;56.60
24730;DHT22;12832;52.392;13.066;2023-08-17T01:58:44;28.60;56.60
24730;DHT22;12832;52.392;13.066;2023-08-17T02:01:11;28.60;56.60
24730;DHT22;12832;52.392;13.066;2023-08-17T02:03:37;28.60;57.20
24730;DHT22;12832;52.392;13.066;2023-08-17T02:06:03;28.60;56.50
24730;DHT22;12832;52.392;13.066;2023-08-17T02:08:30;28.60;56.50
24730;DHT22;12832;52.392;13.066;2023-08-17T02:10:56;28.70;56.60
24730;DHT22;12832;52.392;13.066;2023-08-17T02:13:22;28.70;56.60
24730;DHT22;12832;52.392;13.066;2023-08-17T02:15:48;28.70;56.50
24730;DHT22;12832;52.392;13.066;2023-08-17T02:18:14;28.70;56.50
24730;DHT22;12832;52.392;13.066;2023-08-17T02:20:41;28.70;56.60
24730;DHT22;12832;52.392;13.066;2023-08-17T02:23:07;28.70;56.50
24730;DHT22;12832;52.392;13.066;2023-08-17T02:25:37;28.70;56.50
24730;DHT22;12832;52.392;13.066;2023-08-17T02:28:03;28.60;56.50
24730;DHT22;12832;52.392;13.066;2023-08-17T02:30:30;28.60;56.50
24730;DHT22;12832;52.392;13.066;2023-08-17T02:32:57;28.60;56.40
24730;DHT22;12832;52.392;13.066;2023-08-17T02:35:24;28.60;56.40
24730;DHT22;12832;52.392;13.066;2023-08-17T02:37:50;28.60;56.40
24730;DHT22;12832;52.392;13.066;2023-08-17T02:40:17;28.60;56.40
24730;DHT22;12832;52.392;13.066;2023-08-17T02:42:43;28.60;56.40
24730;DHT22;12832;52.392;13.066;2023-08-17T02:45:10;28.60;56.40
24730;DHT22;12832;52.392;13.066;2023-08-17T02:47:36;28.60;56.40
24730;DHT22;12832;52.392;13.066;2023-08-17T02:50:02;28.60;56.30
24730;DHT22;12832;52.392;13.066;2023-08-17T02:52:29;28.60;56.30
24730;DHT22;12832;52.392;13.066;2023-08-17T02:54:55;28.60;56.30
24730;DHT22;12832;52.392;13.066;2023-08-17T02:57:21;28.60;56.30
24730;DHT22;12832;52.392;13.066;2023-08-17T02:59:48;28.60;56.20
24730;DHT22;12832;52.392;13.066;2023-08-17T03:02:14;28.50;56.20
24730;DHT22;12832;52.392;13.066;2023-08-17T03:04:40;28.50;56.10
24730;DHT22;12832;52.392;13.066;2023-08-17T03:07:07;28.60;56.20
24730;DHT22;12832;52.392;13.066;2023-08-17T03:09:33;28.50;56.10
24730;DHT22;12832;52.392;13.066;2023-08-17T03:12:00;28.50;56.10
24730;DHT22;12832;52.392;13.066;2023-08-17T03:14:26;28.50;56.10
24730;DHT22;12832;52.392;13.066;2023-08-17T03:16:52;28.50;56.00
24730;DHT22;12832;52.392;13.066;2023-08-17T03:19:18;28.50;56.00
24730;DHT22;12832;52.392;13.066;2023-08-17T03:21:44;28.50;56.00
24730;DHT22;12832;52.392;13.066;2023-08-17T03:24:10;28.50;56.00
24730;DHT22;12832;52.392;13.066;2023-08-17T03:26:37;28.50;56.00
24730;DHT22;12832;52.392;13.066;2023-08-17T03:29:03;28.50;56.00
24730;DHT22;12832;52.392;13.066;2023-08-17T03:31:29;28.50;55.90
24730;DHT22;12832;52.392;13.066;2023-08-17T03:33:55;28.50;56.00
24730;DHT22;12832;52.392;13.066;2023-08-17T03:36:22;28.50;56.00
24730;DHT22;12832;52.392;13.066;2023-08-17T03:38:48;28.50;56.00
24730;DHT22;12832;52.392;13.066;2023-08-17T03:41:15;28.50;55.90
24730;DHT22;12832;52.392;13.066;2023-08-17T03:43:41;28.50;56.00
24730;DHT22;12832;52.392;13.066;2023-08-17T03:46:07;28.40;55.90
24730;DHT22;12832;52.392;13.066;2023-08-17T03:48:33;28.50;55.90
24730;DHT22;12832;52.392;13.066;2023-08-17T03:50:59;28.50;55.90
24730;DHT22;12832;52.392;13.066;2023-08-17T03:53:27;28.50;55.90
24730;DHT22;12832;52.392;13.066;2023-08-17T03:55:53;28.50;55.90
24730;DHT22;12832;52.392;13.066;2023-08-17T03:58:20;28.40;55.90
24730;DHT22;12832;52.392;13.066;2023-08-17T04:00:50;28.40;55.90
24730;DHT22;12832;52.392;13.066;2023-08-17T04:03:17;28.40;55.80
24730;DHT22;12832;52.392;13.066;2023-08-17T04:05:43;28.40;55.80
24730;DHT22;12832;52.392;13.066;2023-08-17T04:08:09;28.50;55.90
24730;DHT22;12832;52.392;13.066;2023-08-17T04:10:36;28.40;55.80
24730;DHT22;12832;52.392;13.066;2023-08-17T04:13:02;28.40;55.80
24730;DHT22;12832;52.392;13.066;2023-08-17T04:15:29;28.40;55.80
24730;DHT22;12832;52.392;13.066;2023-08-17T04:17:55;28.40;55.80
24730;DHT22;12832;52.392;13.066;2023-08-17T04:20:21;28.40;55.80
24730;DHT22;12832;52.392;13.066;2023-08-17T04:22:48;28.40;55.80
24730;DHT22;12832;52.392;13.066;2023-08-17T04:25:15;28.40;55.60
24730;DHT22;12832;52.392;13.066;2023-08-17T04:27:41;28.40;55.60
24730;DHT22;12832;52.392;13.066;2023-08-17T04:30:08;28.40;55.50
24730;DHT22;12832;52.392;13.066;2023-08-17T04:32:34;28.40;55.60
24730;DHT22;12832;52.392;13.066;2023-08-17T04:35:01;28.40;55.50
24730;DHT22;12832;52.392;13.066;2023-08-17T04:37:27;28.40;55.50
24730;DHT22;12832;52.392;13.066;2023-08-17T04:39:53;28.40;55.40
24730;DHT22;12832;52.392;13.066;2023-08-17T04:42:20;28.30;55.30
24730;DHT22;12832;52.392;13.066;2023-08-17T04:44:46;28.40;55.40
24730;DHT22;12832;52.392;13.066;2023-08-17T04:47:12;28.40;55.30
24730;DHT22;12832;52.392;13.066;2023-08-17T04:49:38;28.30;55.20
24730;DHT22;12832;52.392;13.066;2023-08-17T04:52:07;28.30;55.20
24730;DHT22;12832;52.392;13.066;2023-08-17T04:54:34;28.30;55.20
24730;DHT22;12832;52.392;13.066;2023-08-17T04:57:00;28.30;55.70
24730;DHT22;12832;52.392;13.066;2023-08-17T04:59:26;28.30;55.10
24730;DHT22;12832;52.392;13.066;2023-08-17T05:01:52;28.30;55.10
24730;DHT22;12832;52.392;13.066;2023-08-17T05:04:20;28.30;54.20
24730;DHT22;12832;52.392;13.066;2023-08-17T05:06:46;28.30;54.30
24730;DHT22;12832;52.392;13.066;2023-08-17T05:09:12;28.20;54.30
24730;DHT22;12832;52.392;13.066;2023-08-17T05:11:38;28.10;54.30
24730;DHT22;12832;52.392;13.066;2023-08-17T05:14:05;28.10;54.40
24730;DHT22;12832;52.392;13.066;2023-08-17T05:16:31;28.10;54.40
24730;DHT22;12832;52.392;13.066;2023-08-17T05:18:57;28.10;54.40
24730;DHT22;12832;52.392;13.066;2023-08-17T05:21:26;28.10;54.40
24730;DHT22;12832;52.392;13.066;2023-08-17T05:23:52;28.00;54.40
24730;DHT22;12832;52.392;13.066;2023-08-17T05:26:18;28.00;54.30
24730;DHT22;12832;52.392;13.066;2023-08-17T05:28:44;28.00;54.30
24730;DHT22;12832;52.392;13.066;2023-08-17T05:31:11;28.00;54.50
24730;DHT22;12832;52.392;13.066;2023-08-17T05:33:37;28.00;54.50
24730;DHT22;12832;52.392;13.066;2023-08-17T05:36:03;27.90;54.50
24730;DHT22;12832;52.392;13.066;2023-08-17T05:38:30;27.90;54.60
24730;DHT22;12832;52.392;13.066;2023-08-17T05:40:57;27.90;54.60
24730;DHT22;12832;52.392;13.066;2023-08-17T05:43:23;27.90;54.60
24730;DHT22;12832;52.392;13.066;2023-08-17T05:45:50;27.90;54.70
24730;DHT22;12832;52.392;13.066;2023-08-17T05:48:18;27.90;54.70
24730;DHT22;12832;52.392;13.066;2023-08-17T05:50:48;27.90;54.80
24730;DHT22;12832;52.392;13.066;2023-08-17T05:53:14;27.90;55.40
24730;DHT22;12832;52.392;13.066;2023-08-17T05:55:41;27.90;54.80
24730;DHT22;12832;52.392;13.066;2023-08-17T05:58:07;27.90;54.70
24730;DHT22;12832;52.392;13.066;2023-08-17T06:00:33;27.90;54.80
24730;DHT22;12832;52.392;13.066;2023-08-17T06:02:59;27.80;54.70
24730;DHT22;12832;52.392;13.066;2023-08-17T06:05:28;27.90;54.80
24730;DHT22;12832;52.392;13.066;2023-08-17T06:07:55;27.80;55.40
24730;DHT22;12832;52.392;13.066;2023-08-17T06:10:22;27.80;54.70
24730;DHT22;12832;52.392;13.066;2023-08-17T06:12:53;27.80;54.80
24730;DHT22;12832;52.392;13.066;2023-08-17T06:15:19;27.80;54.80
24730;DHT22;12832;52.392;13.066;2023-08-17T06:17:46;27.80;54.90
24730;DHT22;12832;52.392;13.066;2023-08-17T06:20:12;27.80;54.90
24730;DHT22;12832;52.392;13.066;2023-08-17T06:22:39;27.80;55.00
24730;DHT22;12832;52.392;13.066;2023-08-17T06:25:06;27.80;55.00
24730;DHT22;12832;52.392;13.066;2023-08-17T06:27:36;27.80;55.00
24730;DHT22;12832;52.392;13.066;2023-08-17T06:30:03;27.80;55.10
24730;DHT22;12832;52.392;13.066;2023-08-17T06:32:30;27.80;55.10
24730;DHT22;12832;52.392;13.066;2023-08-17T06:34:57;27.80;55.10
24730;DHT22;12832;52.392;13.066;2023-08-17T06:37:23;27.80;55.20
24730;DHT22;12832;52.392;13.066;2023-08-17T06:39:50;27.80;55.20
24730;DHT22;12832;52.392;13.066;2023-08-17T06:42:16;27.80;55.20
24730;DHT22;12832;52.392;13.066;2023-08-17T06:44:42;27.80;55.20
24730;DHT22;12832;52.392;13.066;2023-08-17T06:47:09;27.70;55.20
24730;DHT22;12832;52.392;13.066;2023-08-17T06:49:35;27.80;55.40
24730;DHT22;12832;52.392;13.066;2023-08-17T06:52:01;27.70;55.40
24730;DHT22;12832;52.392;13.066;2023-08-17T06:54:28;27.70;55.40
24730;DHT22;12832;52.392;13.066;2023-08-17T06:56:54;27.70;55.40
24730;DHT22;12832;52.392;13.066;2023-08-17T06:59:20;27.80;55.50
24730;DHT22;12832;52.392;13.066;2023-08-17T07:01:48;27.70;55.50
24730;DHT22;12832;52.392;13.066;2023-08-17T07:04:14;27.70;55.50
24730;DHT22;12832;52.392;13.066;2023-08-17T07:06:40;27.80;55.60
24730;DHT22;12832;52.392;13.066;2023-08-17T07:09:07;27.80;55.70
24730;DHT22;12832;52.392;13.066;2023-08-17T07:11:33;27.80;55.70
24730;DHT22;12832;52.392;13.066;2023-08-17T07:13:59;27.70;55.70
24730;DHT22;12832;52.392;13.066;2023-08-17T07:16:25;27.70;55.70
24730;DHT22;12832;52.392;13.066;2023-08-17T07:18:51;27.70;55.70
24730;DHT22;12832;52.392;13.066;2023-08-17T07:21:18;27.70;55.70
24730;DHT22;12832;52.392;13.066;2023-08-17T07:23:45;27.70;55.70
24730;DHT22;12832;52.392;13.066;2023-08-17T07:26:11;27.70;55.70
24730;DHT22;12832;52.392;13.066;2023-08-17T07:28:38;27.70;55.80
24730;DHT22;12832;52.392;13.066;2023-08-17T07:31:04;27.70;55.80
24730;DHT22;12832;52.392;13.066;2023-08-17T07:33:31;27.70;55.90
24730;DHT22;12832;52.392;13.066;2023-08-17T07:35:58;27.70;55.90
24730;DHT22;12832;52.392;13.066;2023-08-17T07:38:24;27.70;55.90
24730;DHT22;12832;52.392;13.066;2023-08-17T07:40:50;27.70;55.90
24730;DHT22;12832;52.392;13.066;2023-08-17T07:43:17;27.70;55.90
24730;DHT22;12832;52.392;13.066;2023-08-17T07:45:43;27.70;55.90
24730;DHT22;12832;52.392;13.066;2023-08-17T07:48:09;27.70;56.00
24730;DHT22;12832;52.392;13.066;2023-08-17T07:50:36;27.70;55.90
24730;DHT22;12832;52.392;13.066;2023-08-17T07:53:02;27.70;55.90
24730;DHT22;12832;52.392;13.066;2023-08-17T07:55:28;27.70;56.00
24730;DHT22;12832;52.392;13.066;2023-08-17T07:57:54;27.70;56.00
24730;DHT22;12832;52.392;13.066;2023-08-17T08:00:21;27.70;56.10
24730;DHT22;12832;52.392;13.066;2023-08-17T08:02:47;27.70;56.00
24730;DHT22;12832;52.392;13.066;2023-08-17T08:05:13;27.70;56.10
24730;DHT22;12832;52.392;13.066;2023-08-17T08:07:40;27.70;56.00
24730;DHT22;12832;52.392;13.066;2023-08-17T08:10:07;27.70;56.10
24730;DHT22;12832;52.392;13.066;2023-08-17T08:12:34;27.70;56.10
24730;DHT22;12832;52.392;13.066;2023-08-17T08:15:01;27.70;56.10
24730;DHT22;12832;52.392;13.066;2023-08-17T08:17:27;27.70;56.10
24730;DHT22;12832;52.392;13.066;2023-08-17T08:19:54;27.70;56.10
24730;DHT22;12832;52.392;13.066;2023-08-17T08:22:20;27.70;56.20
24730;DHT22;12832;52.392;13.066;2023-08-17T08:24:46;27.70;56.20
24730;DHT22;12832;52.392;13.066;2023-08-17T08:27:12;27.70;56.20
24730;DHT22;12832;52.392;13.066;2023-08-17T08:29:39;27.70;56.30
24730;DHT22;12832;52.392;13.066;2023-08-17T08:32:05;27.70;56.30
24730;DHT22;12832;52.392;13.066;2023-08-17T08:34:31;27.70;56.90
24730;DHT22;12832;52.392;13.066;2023-08-17T08:36:58;27.70;56.30
24730;DHT22;12832;52.392;13.066;2023-08-17T08:39:27;27.70;56.30
24730;DHT22;12832;52.392;13.066;2023-08-17T08:41:53;27.70;56.30
24730;DHT22;12832;52.392;13.066;2023-08-17T08:44:20;27.70;56.30
24730;DHT22;12832;52.392;13.066;2023-08-17T08:46:48;27.70;56.30
24730;DHT22;12832;52.392;13.066;2023-08-17T08:49:20;27.70;56.30
24730;DHT22;12832;52.392;13.066;2023-08-17T08:51:50;27.70;56.40
24730;DHT22;12832;52.392;13.066;2023-08-17T08:54:21;27.70;56.40
24730;DHT22;12832;52.392;13.066;2023-08-17T08:56:54;27.70;56.40
24730;DHT22;12832;52.392;13.066;2023-08-17T08:59:23;27.70;56.40
24730;DHT22;12832;52.392;13.066;2023-08-17T09:01:50;27.70;56.40
24730;DHT22;12832;52.392;13.066;2023-08-17T09:04:17;27.70;56.40
24730;DHT22;12832;52.392;13.066;2023-08-17T09:06:44;27.70;56.50
24730;DHT22;12832;52.392;13.066;2023-08-17T09:09:10;27.70;56.40
24730;DHT22;12832;52.392;13.066;2023-08-17T09:11:37;27.70;56.40
24730;DHT22;12832;52.392;13.066;2023-08-17T09:14:06;27.70;56.50
24730;DHT22;12832;52.392;13.066;2023-08-17T09:16:33;27.70;56.50
24730;DHT22;12832;52.392;13.066;2023-08-17T09:18:59;27.70;56.50
24730;DHT22;12832;52.392;13.066;2023-08-17T09:21:25;27.70;56.50
24730;DHT22;12832;52.392;13.066;2023-08-17T09:23:55;27.70;56.50
24730;DHT22;12832;52.392;13.066;2023-08-17T09:26:30;27.70;56.50
24730;DHT22;12832;52.392;13.066;2023-08-17T09:28:59;27.70;56.50
24730;DHT22;12832;52.392;13.066;2023-08-17T09:31:26;27.70;56.50
24730;DHT22;12832;52.392;13.066;2023-08-17T09:33:53;27.70;56.50
24730;DHT22;12832;52.392;13.066;2023-08-17T09:36:22;27.70;56.50
24730;DHT22;12832;52.392;13.066;2023-08-17T09:38:50;27.70;56.50
24730;DHT22;12832;52.392;13.066;2023-08-17T09:41:18;27.70;56.50
24730;DHT22;12832;52.392;13.066;2023-08-17T09:43:47;27.70;56.60
24730;DHT22;12832;52.392;13.066;2023-08-17T09:46:14;27.70;56.50
24730;DHT22;12832;52.392;13.066;2023-08-17T09:48:43;27.70;56.60
24730;DHT22;12832;52.392;13.066;2023-08-17T09:51:10;27.70;56.60
24730;DHT22;12832;52.392;13.066;2023-08-17T09:53:40;27.70;56.60
24730;DHT22;12832;52.392;13.066;2023-08-17T09:56:06;27.70;56.60
24730;DHT22;12832;52.392;13.066;2023-08-17T09:58:42;27.70;56.60
24730;DHT22;12832;52.392;13.066;2023-08-17T10:01:09;27.70;56.60
24730;DHT22;12832;52.392;13.066;2023-08-17T10:03:37;27.70;56.60
24730;DHT22;12832;52.392;13.066;2023-08-17T10:06:06;27.70;56.60
24730;DHT22;12832;52.392;13.066;2023-08-17T10:08:54;27.70;56.60
24730;DHT22;12832;52.392;13.066;2023-08-17T10:11:23;27.70;56.60
24730;DHT22;12832;52.392;13.066;2023-08-17T10:14:02;27.70;56.60
24730;DHT22;12832;52.392;13.066;2023-08-17T10:16:45;27.70;56.70
24730;DHT22;12832;52.392;13.066;2023-08-17T10:24:51;27.70;56.70
24730;DHT22;12832;52.392;13.066;2023-08-17T10:27:20;27.70;56.70
24730;DHT22;12832;52.392;13.066;2023-08-17T10:29:47;27.70;56.80
24730;DHT22;12832;52.392;13.066;2023-08-17T10:32:15;27.70;56.80
24730;DHT22;12832;52.392;13.066;2023-08-17T10:34:42;27.70;56.80
24730;DHT22;12832;52.392;13.066;2023-08-17T10:37:10;27.70;56.80
24730;DHT22;12832;52.392;13.066;2023-08-17T10:39:42;27.70;56.80
24730;DHT22;12832;52.392;13.066;2023-08-17T10:42:10;27.70;56.80
24730;DHT22;12832;52.392;13.066;2023-08-17T10:44:47;27.70;56.80
24730;DHT22;12832;52.392;13.066;2023-08-17T10:47:30;27.70;56.80
24730;DHT22;12832;52.392;13.066;2023-08-17T10:50:24;27.70;56.80
24730;DHT22;12832;52.392;13.066;2023-08-17T10:52:53;27.70;56.80
24730;DHT22;12832;52.392;13.066;2023-08-17T10:55:36;27.80;56.90
24730;DHT22;12832;52.392;13.066;2023-08-17T10:58:03;27.70;56.80
24730;DHT22;12832;52.392;13.066;2023-08-17T11:00:38;27.70;56.80
24730;DHT22;12832;52.392;13.066;2023-08-17T11:03:06;27.80;57.00
24730;DHT22;12832;52.392;13.066;2023-08-17T11:05:37;27.70;56.90
24730;DHT22;12832;52.392;13.066;2023-08-17T11:08:06;27.70;56.90
24730;DHT22;12832;52.392;13.066;2023-08-17T11:10:32;27.70;56.90
24730;DHT22;12832;52.392;13.066;2023-08-17T11:12:59;27.80;57.00
24730;DHT22;12832;52.392;13.066;2023-08-17T11:15:34;27.80;57.00
24730;DHT22;12832;52.392;13.066;2023-08-17T11:18:05;27.80;57.00
24730;DHT22;12832;52.392;13.066;2023-08-17T11:20:36;27.80;57.00
24730;DHT22;12832;52.392;13.066;2023-08-17T11:23:08;27.70;57.00
24730;DHT22;12832;52.392;13.066;2023-08-17T11:25:35;27.80;57.00
24730;DHT22;12832;52.392;13.066;2023-08-17T11:28:03;27.80;57.00
24730;DHT22;12832;52.392;13.066;2023-08-17T11:30:29;27.80;57.00
24730;DHT22;12832;52.392;13.066;2023-08-17T11:32:56;27.80;57.00
24730;DHT22;12832;52.392;13.066;2023-08-17T11:35:23;27.80;57.00
24730;DHT22;12832;52.392;13.066;2023-08-17T11:37:49;27.70;57.00
24730;DHT22;12832;52.392;13.066;2023-08-17T11:40:16;27.80;57.00
24730;DHT22;12832;52.392;13.066;2023-08-17T11:42:43;27.80;57.10
24730;DHT22;12832;52.392;13.066;2023-08-17T11:45:09;27.80;57.10
24730;DHT22;12832;52.392;13.066;2023-08-17T11:47:40;27.80;57.10
24730;DHT22;12832;52.392;13.066;2023-08-17T11:50:08;27.80;57.20
24730;DHT22;12832;52.392;13.066;2023-08-17T11:52:45;27.80;57.10
24730;DHT22;12832;52.392;13.066;2023-08-17T11:55:16;27.80;57.10
24730;DHT22;12832;52.392;13.066;2023-08-17T11:57:43;27.80;57.10
24730;DHT22;12832;52.392;13.066;2023-08-17T12:00:16;27.80;57.10
24730;DHT22;12832;52.392;13.066;2023-08-17T12:02:42;27.80;57.10
24730;DHT22;12832;52.392;13.066;2023-08-17T12:05:11;27.80;57.20
24730;DHT22;12832;52.392;13.066;2023-08-17T12:07:37;27.80;57.20
24730;DHT22;12832;52.392;13.066;2023-08-17T12:10:04;27.80;57.30
24730;DHT22;12832;52.392;13.066;2023-08-17T12:12:31;27.80;57.20
24730;DHT22;12832;52.392;13.066;2023-08-17T12:15:03;27.80;57.30
24730;DHT22;12832;52.392;13.066;2023-08-17T12:17:29;27.80;57.20
24730;DHT22;12832;52.392;13.066;2023-08-17T12:19:56;27.80;57.30
24730;DHT22;12832;52.392;13.066;2023-08-17T12:22:25;27.80;57.30
24730;DHT22;12832;52.392;13.066;2023-08-17T12:24:54;27.80;57.30
24730;DHT22;12832;52.392;13.066;2023-08-17T12:27:22;27.80;57.30
24730;DHT22;12832;52.392;13.066;2023-08-17T12:29:50;27.80;57.30
24730;DHT22;12832;52.392;13.066;2023-08-17T12:32:19;27.80;57.40
24730;DHT22;12832;52.392;13.066;2023-08-17T12:34:46;27.80;57.40
24730;DHT22;12832;52.392;13.066;2023-08-17T12:37:17;27.80;57.40
24730;DHT22;12832;52.392;13.066;2023-08-17T12:39:44;27.80;57.40
24730;DHT22;12832;52.392;13.066;2023-08-17T12:42:10;27.80;58.00
24730;DHT22;12832;52.392;13.066;2023-08-17T12:44:38;27.80;57.40
24730;DHT22;12832;52.392;13.066;2023-08-17T12:47:04;27.80;57.50
24730;DHT22;12832;52.392;13.066;2023-08-17T12:49:30;27.80;57.40
24730;DHT22;12832;52.392;13.066;2023-08-17T12:51:57;27.90;57.50
24730;DHT22;12832;52.392;13.066;2023-08-17T12:54:23;27.80;57.50
24730;DHT22;12832;52.392;13.066;2023-08-17T12:56:49;27.80;57.50
24730;DHT22;12832;52.392;13.066;2023-08-17T12:59:15;27.80;57.50
24730;DHT22;12832;52.392;13.066;2023-08-17T13:01:41;27.80;57.50
24730;DHT22;12832;52.392;13.066;2023-08-17T13:04:09;27.80;57.50
24730;DHT22;12832;52.392;13.066;2023-08-17T13:06:35;27.80;57.50
24730;DHT22;12832;52.392;13.066;2023-08-17T13:09:15;27.80;58.20
24730;DHT22;12832;52.392;13.066;2023-08-17T13:11:41;27.80;57.60
24730;DHT22;12832;52.392;13.066;2023-08-17T13:14:08;27.80;57.60
24730;DHT22;12832;52.392;13.066;2023-08-17T13:16:34;27.90;57.70
24730;DHT22;12832;52.392;13.066;2023-08-17T13:19:00;27.80;57.60
24730;DHT22;12832;52.392;13.066;2023-08-17T13:21:26;27.90;57.70
24730;DHT22;12832;52.392;13.066;2023-08-17T13:23:52;27.80;57.60
24730;DHT22;12832;52.392;13.066;2023-08-17T13:26:20;27.80;57.60
24730;DHT22;12832;52.392;13.066;2023-08-17T13:28:47;27.90;57.70
24730;DHT22;12832;52.392;13.066;2023-08-17T13:31:13;27.80;57.70
24730;DHT22;12832;52.392;13.066;2023-08-17T13:33:50;27.90;57.70
24730;DHT22;12832;52.392;13.066;2023-08-17T13:36:17;27.90;57.70
24730;DHT22;12832;52.392;13.066;2023-08-17T13:38:44;27.90;57.80
24730;DHT22;12832;52.392;13.066;2023-08-17T13:41:12;27.90;57.80
24730;DHT22;12832;52.392;13.066;2023-08-17T13:43:39;27.90;57.80
24730;DHT22;12832;52.392;13.066;2023-08-17T13:46:06;27.90;57.80
24730;DHT22;12832;52.392;13.066;2023-08-17T13:48:32;27.90;57.80
24730;DHT22;12832;52.392;13.066;2023-08-17T13:50:58;27.90;57.90
24730;DHT22;12832;52.392;13.066;2023-08-17T13:53:24;27.90;57.80
24730;DHT22;12832;52.392;13.066;2023-08-17T13:55:51;27.90;57.80
24730;DHT22;12832;52.392;13.066;2023-08-17T13:58:17;27.90;57.80
24730;DHT22;12832;52.392;13.066;2023-08-17T14:00:43;27.90;57.90
24730;DHT22;12832;52.392;13.066;2023-08-17T14:03:09;27.90;57.90
24730;DHT22;12832;52.392;13.066;2023-08-17T14:05:36;27.90;57.90
24730;DHT22;12832;52.392;13.066;2023-08-17T14:08:02;27.90;57.90
24730;DHT22;12832;52.392;13.066;2023-08-17T14:10:30;27.90;57.90
24730;DHT22;12832;52.392;13.066;2023-08-17T14:13:05;27.90;57.90
24730;DHT22;12832;52.392;13.066;2023-08-17T14:15:32;27.90;58.00
24730;DHT22;12832;52.392;13.066;2023-08-17T14:17:58;27.90;58.00
24730;DHT22;12832;52.392;13.066;2023-08-17T14:20:24;27.90;58.00
24730;DHT22;12832;52.392;13.066;2023-08-17T14:22:50;27.90;58.00
24730;DHT22;12832;52.392;13.066;2023-08-17T14:25:17;27.90;58.00
24730;DHT22;12832;52.392;13.066;2023-08-17T14:27:44;27.90;58.00
24730;DHT22;12832;52.392;13.066;2023-08-17T14:30:10;27.90;58.10
24730;DHT22;12832;52.392;13.066;2023-08-17T14:32:36;27.90;58.10
24730;DHT22;12832;52.392;13.066;2023-08-17T14:35:03;27.90;58.10
24730;DHT22;12832;52.392;13.066;2023-08-17T14:37:29;27.90;58.10
24730;DHT22;12832;52.392;13.066;2023-08-17T14:39:56;27.90;58.10
24730;DHT22;12832;52.392;13.066;2023-08-17T14:42:22;27.90;58.10
24730;DHT22;12832;52.392;13.066;2023-08-17T14:44:50;27.90;58.10
24730;DHT22;12832;52.392;13.066;2023-08-17T14:47:16;27.90;58.10
24730;DHT22;12832;52.392;13.066;2023-08-17T14:49:47;27.90;58.10
24730;DHT22;12832;52.392;13.066;2023-08-17T14:52:13;27.90;58.10
24730;DHT22;12832;52.392;13.066;2023-08-17T14:54:40;27.90;58.10
24730;DHT22;12832;52.392;13.066;2023-08-17T14:57:09;27.90;58.20
24730;DHT22;12832;52.392;13.066;2023-08-17T14:59:35;27.90;58.20
24730;DHT22;12832;52.392;13.066;2023-08-17T15:02:02;27.90;58.20
24730;DHT22;12832;52.392;13.066;2023-08-17T15:04:28;27.90;58.20
24730;DHT22;12832;52.392;13.066;2023-08-17T15:06:55;27.90;58.30
24730;DHT22;12832;52.392;13.066;2023-08-17T15:09:21;27.90;58.40
24730;DHT22;12832;52.392;13.066;2023-08-17T15:11:47;27.90;58.30
24730;DHT22;12832;52.392;13.066;2023-08-17T15:14:14;27.90;58.30
24730;DHT22;12832;52.392;13.066;2023-08-17T15:16:42;27.90;58.30
24730;DHT22;12832;52.392;13.066;2023-08-17T15:19:08;27.90;58.30
24730;DHT22;12832;52.392;13.066;2023-08-17T15:21:34;27.90;58.40
24730;DHT22;12832;52.392;13.066;2023-08-17T15:24:00;27.90;58.40
24730;DHT22;12832;52.392;13.066;2023-08-17T15:26:28;27.90;58.30